createdAt,value
2023-01-23T00:00:40.244Z,56.00
2023-01-23T00:03:06.697Z,55.40
2023-01-23T00:05:33.187Z,55.40
2023-01-23T00:07:59.667Z,55.40
2023-01-23T00:10:26.165Z,55.40
2023-01-23T00:12:52.623Z,55.50
2023-01-23T00:15:19.120Z,55.50
2023-01-23T00:17:45.589Z,55.30
2023-01-23T00:20:12.080Z,55.30
2023-01-23T00:22:38.564Z,55.40
2023-01-23T00:25:05.050Z,55.40
2023-01-23T00:27:31.517Z,56.10
2023-01-23T00:29:57.976Z,55.40
2023-01-23T00:32:24.470Z,55.20
2023-01-23T00:34:50.947Z,55.30
2023-01-23T00:37:17.424Z,55.20
2023-01-23T00:39:43.913Z,55.30
2023-01-23T00:42:10.418Z,55.20
2023-01-23T00:44:36.881Z,55.30
2023-01-23T00:47:03.352Z,55.30
2023-01-23T00:49:29.819Z,55.30
2023-01-23T00:51:56.337Z,55.30
2023-01-23T00:54:22.820Z,55.30
2023-01-23T00:56:49.310Z,55.30
2023-01-23T00:59:15.776Z,55.40
2023-01-23T01:01:42.354Z,55.20
2023-01-23T01:04:08.870Z,55.30
2023-01-23T01:06:35.332Z,55.20
2023-01-23T01:09:01.789Z,55.30
2023-01-23T01:11:28.262Z,55.20
2023-01-23T01:13:54.751Z,55.20
2023-01-23T01:16:21.300Z,55.20
2023-01-23T01:18:47.820Z,55.30
2023-01-23T01:21:14.304Z,55.40
2023-01-23T01:23:40.776Z,55.30
2023-01-23T01:26:07.269Z,55.20
2023-01-23T01:28:33.749Z,55.40
2023-01-23T01:31:00.315Z,55.30
2023-01-23T01:33:26.890Z,55.30
2023-01-23T01:35:53.382Z,55.20
2023-01-23T01:38:19.845Z,55.30
2023-01-23T01:40:46.349Z,55.50
2023-01-23T01:43:12.828Z,55.30
2023-01-23T01:45:39.344Z,55.30
2023-01-23T01:48:05.840Z,55.30
2023-01-23T01:50:32.318Z,55.30
2023-01-23T01:52:58.794Z,55.30
2023-01-23T01:55:25.299Z,55.30
2023-01-23T01:57:51.771Z,55.30
2023-01-23T02:00:18.635Z,55.50
2023-01-23T02:02:45.326Z,55.40
2023-01-23T02:05:11.824Z,55.40
2023-01-23T02:07:38.292Z,55.40
2023-01-23T02:10:04.784Z,55.40
2023-01-23T02:12:31.265Z,55.40
2023-01-23T02:14:57.741Z,55.30
2023-01-23T02:17:24.237Z,55.30
2023-01-23T02:19:50.724Z,55.30
2023-01-23T02:22:17.279Z,55.20
2023-01-23T02:24:43.765Z,55.30
2023-01-23T02:27:10.250Z,55.40
2023-01-23T02:29:36.731Z,55.40
2023-01-23T02:32:03.280Z,55.30
2023-01-23T02:34:29.763Z,55.40
2023-01-23T02:36:56.239Z,55.30
2023-01-23T02:39:28.379Z,55.40
2023-01-23T02:41:54.911Z,55.30
2023-01-23T02:44:21.377Z,55.40
2023-01-23T02:46:47.853Z,55.30
2023-01-23T02:49:14.371Z,55.30
2023-01-23T02:51:40.838Z,55.40
2023-01-23T02:54:07.301Z,55.40
2023-01-23T02:56:33.804Z,55.30
2023-01-23T02:59:00.298Z,55.30
2023-01-23T03:01:26.785Z,55.30
2023-01-23T03:03:53.243Z,55.30
2023-01-23T03:06:19.748Z,55.40
2023-01-23T03:08:46.209Z,55.40
2023-01-23T03:11:12.701Z,55.40
2023-01-23T03:13:39.170Z,55.40
2023-01-23T03:16:05.685Z,55.50
2023-01-23T03:18:33.489Z,55.50
2023-01-23T03:21:01.105Z,55.50
2023-01-23T03:23:27.564Z,55.50
2023-01-23T03:25:54.046Z,55.60
2023-01-23T03:28:23.547Z,55.50
2023-01-23T03:30:50.098Z,55.60
2023-01-23T03:33:16.622Z,55.60
2023-01-23T03:35:43.120Z,55.60
2023-01-23T03:38:09.598Z,55.50
2023-01-23T03:40:36.104Z,55.60
2023-01-23T03:43:02.586Z,55.50
2023-01-23T03:45:29.158Z,55.80
2023-01-23T03:47:55.664Z,55.70
2023-01-23T03:50:22.356Z,55.70
2023-01-23T03:52:48.973Z,55.60
2023-01-23T03:55:15.464Z,55.60
2023-01-23T03:57:41.937Z,55.80
2023-01-23T04:00:08.452Z,55.60
2023-01-23T04:02:34.949Z,55.60
2023-01-23T04:05:01.447Z,55.60
2023-01-23T04:07:27.945Z,55.70
2023-01-23T04:09:54.416Z,55.60
2023-01-23T04:12:20.901Z,55.70
2023-01-23T04:14:47.383Z,55.70
2023-01-23T04:17:13.861Z,55.60
2023-01-23T04:19:40.317Z,55.70
2023-01-23T04:22:06.798Z,55.60
2023-01-23T04:24:33.258Z,55.70
2023-01-23T04:26:59.745Z,55.70
2023-01-23T04:29:26.208Z,55.70
2023-01-23T04:31:52.743Z,55.60
2023-01-23T04:34:19.240Z,55.70
2023-01-23T04:36:45.719Z,55.60
2023-01-23T04:39:12.210Z,55.80
2023-01-23T04:41:38.703Z,55.70
2023-01-23T04:44:05.166Z,55.90
2023-01-23T04:46:31.674Z,55.80
2023-01-23T04:48:58.151Z,55.80
2023-01-23T04:51:24.743Z,55.70
2023-01-23T04:53:51.239Z,55.70
2023-01-23T04:56:17.730Z,55.70
2023-01-23T04:58:44.199Z,55.70
2023-01-23T05:01:10.705Z,55.80
2023-01-23T05:03:37.207Z,55.70
2023-01-23T05:06:03.725Z,55.70
2023-01-23T05:08:30.216Z,55.60
2023-01-23T05:10:56.648Z,55.70
2023-01-23T05:13:23.123Z,55.70
2023-01-23T05:15:49.633Z,55.70
2023-01-23T05:18:16.109Z,55.60
2023-01-23T05:20:42.582Z,55.60
2023-01-23T05:23:09.102Z,55.90
2023-01-23T05:25:35.593Z,55.80
2023-01-23T05:28:02.107Z,55.90
2023-01-23T05:30:28.607Z,55.80
2023-01-23T05:32:55.119Z,55.90
2023-01-23T05:35:21.622Z,55.80
2023-01-23T05:37:48.098Z,55.80
2023-01-23T05:40:14.572Z,55.80
2023-01-23T05:42:41.075Z,55.80
2023-01-23T05:45:07.539Z,55.70
2023-01-23T05:47:34.048Z,55.80
2023-01-23T05:50:00.535Z,55.80
2023-01-23T05:52:27.034Z,55.80
2023-01-23T05:54:53.515Z,55.80
2023-01-23T05:57:20.019Z,55.80
2023-01-23T05:59:46.488Z,55.80
2023-01-23T06:02:13.029Z,56.00
2023-01-23T06:04:39.506Z,55.90
2023-01-23T06:07:05.987Z,55.80
2023-01-23T06:09:32.456Z,55.90
2023-01-23T06:11:58.970Z,55.90
2023-01-23T06:14:25.433Z,56.00
2023-01-23T06:16:51.905Z,55.90
2023-01-23T06:19:18.419Z,55.90
2023-01-23T06:21:44.893Z,55.80
2023-01-23T06:24:11.377Z,55.70
2023-01-23T06:26:37.861Z,55.90
2023-01-23T06:29:04.350Z,55.70
2023-01-23T06:31:30.923Z,55.90
2023-01-23T06:33:57.439Z,55.80
2023-01-23T06:36:23.921Z,55.90
2023-01-23T06:38:50.443Z,55.80
2023-01-23T06:41:19.632Z,55.90
2023-01-23T06:43:46.303Z,55.90
2023-01-23T06:46:12.879Z,55.90
2023-01-23T06:48:39.389Z,55.80
2023-01-23T06:51:05.898Z,55.80
2023-01-23T06:53:32.395Z,55.80
2023-01-23T06:55:58.853Z,55.90
2023-01-23T06:58:25.339Z,55.90
2023-01-23T07:00:51.818Z,55.80
2023-01-23T07:03:18.355Z,55.90
2023-01-23T07:05:44.878Z,55.90
2023-01-23T07:08:11.453Z,55.90
2023-01-23T07:10:37.915Z,56.00
2023-01-23T07:13:04.426Z,56.00
2023-01-23T07:15:30.911Z,56.10
2023-01-23T07:17:57.451Z,56.00
2023-01-23T07:20:23.943Z,56.00
2023-01-23T07:22:50.446Z,56.00
2023-01-23T07:25:16.927Z,55.90
2023-01-23T07:27:43.404Z,56.00
2023-01-23T07:30:09.878Z,56.00
2023-01-23T07:32:36.379Z,56.00
2023-01-23T07:35:02.868Z,56.00
2023-01-23T07:37:29.347Z,56.10
2023-01-23T07:39:55.840Z,56.00
2023-01-23T07:42:22.294Z,56.10
2023-01-23T07:44:48.776Z,56.10
2023-01-23T07:47:15.256Z,56.10
2023-01-23T07:49:41.725Z,56.10
2023-01-23T07:52:10.570Z,56.00
2023-01-23T07:54:37.060Z,56.10
2023-01-23T07:57:03.536Z,56.10
2023-01-23T07:59:30.048Z,56.10
2023-01-23T08:01:56.534Z,56.10
2023-01-23T08:04:23.056Z,56.00
2023-01-23T08:06:49.531Z,56.00
2023-01-23T08:09:16.023Z,56.00
2023-01-23T08:11:42.489Z,56.10
2023-01-23T08:14:08.975Z,56.20
2023-01-23T08:16:35.447Z,56.30
2023-01-23T08:19:01.979Z,56.20
2023-01-23T08:21:28.469Z,56.20
2023-01-23T08:23:54.939Z,56.20
2023-01-23T08:26:21.437Z,56.10
2023-01-23T08:28:47.911Z,56.10
2023-01-23T08:31:16.744Z,56.10
2023-01-23T08:33:43.291Z,56.10
2023-01-23T08:36:11.322Z,56.20
2023-01-23T08:38:37.973Z,56.10
2023-01-23T08:41:04.469Z,56.30
2023-01-23T08:43:30.895Z,56.40
2023-01-23T08:45:57.473Z,56.30
2023-01-23T08:48:24.034Z,56.40
2023-01-23T08:50:52.695Z,56.20
2023-01-23T08:53:19.187Z,56.40
2023-01-23T08:55:45.679Z,56.30
2023-01-23T08:58:12.154Z,56.30
2023-01-23T09:00:38.674Z,56.40
2023-01-23T09:03:11.542Z,56.30
2023-01-23T09:05:38.093Z,56.30
2023-01-23T09:08:04.573Z,56.50
2023-01-23T09:10:31.080Z,56.40
2023-01-23T09:12:57.580Z,56.50
2023-01-23T09:15:24.091Z,56.40
2023-01-23T09:17:50.590Z,56.50
2023-01-23T09:20:17.080Z,56.70
2023-01-23T09:22:43.569Z,56.90
2023-01-23T09:25:10.061Z,56.90
2023-01-23T09:27:36.533Z,56.80
2023-01-23T09:30:03.039Z,57.00
2023-01-23T09:32:29.507Z,56.80
2023-01-23T09:34:55.993Z,56.70
2023-01-23T09:37:22.461Z,56.40
2023-01-23T09:39:48.922Z,56.40
2023-01-23T09:42:15.411Z,56.50
2023-01-23T09:44:41.885Z,56.80
2023-01-23T09:47:08.371Z,56.60
2023-01-23T09:49:34.832Z,56.50
2023-01-23T09:52:01.338Z,56.10
2023-01-23T09:54:27.838Z,56.60
2023-01-23T09:56:54.312Z,55.70
2023-01-23T09:59:20.833Z,55.50
2023-01-23T10:01:47.337Z,55.30
2023-01-23T10:04:13.824Z,55.60
2023-01-23T10:06:40.468Z,56.00
2023-01-23T10:09:07.026Z,55.70
2023-01-23T10:11:33.519Z,55.60
2023-01-23T10:14:00.000Z,55.40
2023-01-23T10:16:26.538Z,55.50
2023-01-23T10:18:53.038Z,55.20
2023-01-23T10:21:19.514Z,55.30
2023-01-23T10:23:45.985Z,55.40
2023-01-23T10:26:12.464Z,55.30
2023-01-23T10:28:38.981Z,55.00
2023-01-23T10:31:05.557Z,54.40
2023-01-23T10:33:32.115Z,53.90
2023-01-23T10:35:58.642Z,53.70
2023-01-23T10:38:25.127Z,53.80
2023-01-23T10:40:51.620Z,53.80
2023-01-23T10:43:18.108Z,53.40
2023-01-23T10:45:44.662Z,53.30
2023-01-23T10:48:16.122Z,53.10
2023-01-23T10:50:42.887Z,53.20
2023-01-23T10:53:09.377Z,53.70
2023-01-23T10:55:35.886Z,53.90
2023-01-23T10:58:02.375Z,54.30
2023-01-23T11:00:28.847Z,54.80
2023-01-23T11:02:55.373Z,54.70
2023-01-23T11:05:22.294Z,55.20
2023-01-23T11:07:48.897Z,55.60
2023-01-23T11:10:15.370Z,56.00
2023-01-23T11:12:41.830Z,56.10
2023-01-23T11:15:08.322Z,55.90
2023-01-23T11:17:34.796Z,55.60
2023-01-23T11:20:05.075Z,55.60
2023-01-23T11:22:31.563Z,55.50
2023-01-23T11:24:58.038Z,55.30
2023-01-23T11:27:24.501Z,55.20
2023-01-23T11:29:50.964Z,55.00
2023-01-23T11:32:17.532Z,55.10
2023-01-23T11:34:44.075Z,55.40
2023-01-23T11:37:10.566Z,55.60
2023-01-23T11:39:37.093Z,55.60
2023-01-23T11:42:03.577Z,55.80
2023-01-23T11:44:32.365Z,55.80
2023-01-23T11:47:04.485Z,55.70
2023-01-23T11:49:30.970Z,55.70
2023-01-23T11:51:57.436Z,55.70
2023-01-23T11:54:23.907Z,55.90
2023-01-23T11:56:50.416Z,56.10
2023-01-23T11:59:16.918Z,56.00
2023-01-23T12:01:49.320Z,55.90
2023-01-23T12:04:18.634Z,56.00
2023-01-23T12:06:45.121Z,56.20
2023-01-23T12:09:11.624Z,56.30
2023-01-23T12:11:38.090Z,57.30
2023-01-23T12:14:04.591Z,57.20
2023-01-23T12:16:31.162Z,57.20
2023-01-23T12:18:57.686Z,57.30
2023-01-23T12:21:24.181Z,57.40
2023-01-23T12:23:50.692Z,57.40
2023-01-23T12:26:17.151Z,57.40
2023-01-23T12:28:43.621Z,57.40
2023-01-23T12:31:10.210Z,57.40
2023-01-23T12:33:36.726Z,57.50
2023-01-23T12:36:03.202Z,57.50
2023-01-23T12:38:29.681Z,57.60
2023-01-23T12:40:56.212Z,57.60
2023-01-23T12:43:22.709Z,57.50
2023-01-23T12:45:49.202Z,57.60
2023-01-23T12:48:15.731Z,57.50
2023-01-23T12:50:42.227Z,57.70
2023-01-23T12:53:08.943Z,57.80
2023-01-23T12:55:35.399Z,57.50
2023-01-23T12:58:09.168Z,57.70
2023-01-23T13:00:36.174Z,57.60
2023-01-23T13:03:02.725Z,57.70
2023-01-23T13:05:29.194Z,57.70
2023-01-23T13:07:55.673Z,57.80
2023-01-23T13:10:22.805Z,57.70
2023-01-23T13:12:49.436Z,57.80
2023-01-23T13:15:17.301Z,57.80
2023-01-23T13:17:45.303Z,57.80
2023-01-23T13:20:11.775Z,57.80
2023-01-23T13:22:38.294Z,57.80
2023-01-23T13:25:04.763Z,57.80
2023-01-23T13:27:31.259Z,57.80
2023-01-23T13:29:57.733Z,57.80
2023-01-23T13:32:24.345Z,57.80
2023-01-23T13:34:50.898Z,57.80
2023-01-23T13:37:17.358Z,58.00
2023-01-23T13:39:44.770Z,57.90
2023-01-23T13:42:11.281Z,57.90
2023-01-23T13:44:41.543Z,57.80
2023-01-23T14:21:53.300Z,57.90
2023-01-23T14:24:19.802Z,57.90
2023-01-23T14:26:46.336Z,57.90
2023-01-23T14:29:12.840Z,57.90
2023-01-23T14:31:39.444Z,58.00
2023-01-23T14:34:10.685Z,57.80
2023-01-23T14:36:38.520Z,57.90
2023-01-23T14:39:04.976Z,57.80
2023-01-23T14:41:31.937Z,57.80
2023-01-23T14:43:58.483Z,57.70
2023-01-23T14:46:24.986Z,57.80
2023-01-23T14:48:51.504Z,57.80
2023-01-23T14:51:18.995Z,57.90
2023-01-23T14:53:46.392Z,57.70
2023-01-23T14:56:12.883Z,57.70
2023-01-23T14:58:39.351Z,57.70
2023-01-23T15:01:05.863Z,57.60
2023-01-23T15:03:32.379Z,57.60
2023-01-23T15:05:59.113Z,57.50
2023-01-23T15:08:25.609Z,57.60
2023-01-23T15:10:52.111Z,57.60
2023-01-23T15:13:18.595Z,57.60
2023-01-23T15:15:45.079Z,57.60
2023-01-23T15:18:11.547Z,57.60
2023-01-23T15:20:38.079Z,57.50
2023-01-23T15:23:04.555Z,57.60
2023-01-23T15:25:31.038Z,57.60
2023-01-23T15:27:57.513Z,57.70
2023-01-23T15:30:24.022Z,57.60
2023-01-23T15:32:50.491Z,57.50
2023-01-23T15:35:16.978Z,57.40
2023-01-23T15:37:43.440Z,57.40
2023-01-23T15:40:09.971Z,57.50
2023-01-23T15:42:36.435Z,57.50
2023-01-23T15:45:02.941Z,57.30
2023-01-23T15:47:29.422Z,57.40
2023-01-23T15:49:56.054Z,57.50
2023-01-23T15:52:22.543Z,57.40
2023-01-23T15:54:49.035Z,57.20
2023-01-23T15:57:15.539Z,57.20
2023-01-23T15:59:41.997Z,57.30
2023-01-23T16:02:18.147Z,57.00
2023-01-23T16:04:51.377Z,57.10
2023-01-23T16:07:17.886Z,57.20
2023-01-23T16:09:44.340Z,57.30
2023-01-23T16:12:11.345Z,57.40
2023-01-23T16:14:37.834Z,57.30
2023-01-23T16:17:15.902Z,57.20
2023-01-23T16:19:43.404Z,57.20
2023-01-23T16:22:09.899Z,57.30
2023-01-23T16:24:36.502Z,57.30
2023-01-23T16:27:03.020Z,57.20
2023-01-23T16:29:29.509Z,57.10
2023-01-23T16:31:56.291Z,57.10
2023-01-23T16:34:22.823Z,57.10
2023-01-23T16:36:49.315Z,57.20
2023-01-23T16:39:15.797Z,57.20
2023-01-23T16:41:42.270Z,57.20
2023-01-23T16:44:08.738Z,57.00
2023-01-23T16:46:35.293Z,57.10
2023-01-23T16:49:01.861Z,57.00
2023-01-23T16:51:28.341Z,56.80
2023-01-23T16:53:54.805Z,56.80
2023-01-23T16:56:21.295Z,56.80
2023-01-23T16:58:47.759Z,56.60
2023-01-23T17:01:14.253Z,56.50
2023-01-23T17:03:40.954Z,56.50
2023-01-23T17:06:07.479Z,56.70
2023-01-23T17:08:33.972Z,56.70
2023-01-23T17:11:00.462Z,56.70
2023-01-23T17:13:26.980Z,56.60
2023-01-23T17:15:53.478Z,56.50
2023-01-23T17:18:19.952Z,56.80
2023-01-23T17:20:46.444Z,56.60
2023-01-23T17:23:12.979Z,56.70
2023-01-23T17:25:50.814Z,56.60
2023-01-23T17:28:20.988Z,56.40
2023-01-23T17:30:47.457Z,56.50
2023-01-23T17:33:13.980Z,56.40
2023-01-23T17:35:40.539Z,56.60
2023-01-23T17:38:07.038Z,56.50
2023-01-23T17:40:33.914Z,56.30
2023-01-23T17:43:00.612Z,56.40
2023-01-23T17:45:27.192Z,56.40
2023-01-23T17:47:53.726Z,56.40
2023-01-23T17:50:20.474Z,56.30
2023-01-23T17:52:47.151Z,56.30
2023-01-23T17:55:13.640Z,56.20
2023-01-23T17:57:40.132Z,56.20
2023-01-23T18:00:06.782Z,56.10
2023-01-23T18:02:33.312Z,56.30
2023-01-23T18:04:59.820Z,56.30
2023-01-23T18:07:26.294Z,56.10
2023-01-23T18:09:52.772Z,56.00
2023-01-23T18:12:19.240Z,56.00
2023-01-23T18:14:45.736Z,56.00
2023-01-23T18:17:12.423Z,56.20
2023-01-23T18:19:38.885Z,56.10
2023-01-23T18:22:05.346Z,55.90
2023-01-23T18:24:31.825Z,56.00
2023-01-23T18:26:58.317Z,56.10
2023-01-23T18:29:24.810Z,56.00
2023-01-23T18:31:51.436Z,56.00
2023-01-23T18:34:17.964Z,56.10
2023-01-23T18:36:44.431Z,56.00
2023-01-23T18:39:12.043Z,55.90
2023-01-23T18:41:38.537Z,56.00
2023-01-23T18:44:05.025Z,56.00
2023-01-23T18:46:31.511Z,56.00
2023-01-23T18:48:57.984Z,56.10
2023-01-23T18:51:24.471Z,56.10
2023-01-23T18:53:50.951Z,56.10
2023-01-23T18:56:17.432Z,56.00
2023-01-23T18:58:43.895Z,55.90
2023-01-23T19:01:10.419Z,56.00
2023-01-23T19:03:36.916Z,56.00
2023-01-23T19:06:03.408Z,56.00
2023-01-23T19:08:29.887Z,56.00
2023-01-23T19:10:56.356Z,56.10
2023-01-23T19:13:22.855Z,56.10
2023-01-23T19:15:49.385Z,55.90
2023-01-23T19:18:15.904Z,55.80
2023-01-23T19:20:42.452Z,55.80
2023-01-23T19:23:08.937Z,55.80
2023-01-23T19:25:35.441Z,56.00
2023-01-23T19:28:01.919Z,55.90
2023-01-23T19:30:28.392Z,55.90
2023-01-23T19:32:54.902Z,55.90
2023-01-23T19:35:21.371Z,55.80
2023-01-23T19:37:47.847Z,55.90
2023-01-23T19:40:14.350Z,55.90
2023-01-23T19:42:52.340Z,56.00
2023-01-23T19:45:23.119Z,55.90
2023-01-23T19:47:49.828Z,55.90
2023-01-23T19:50:16.345Z,55.80
2023-01-23T19:52:42.842Z,55.90
2023-01-23T19:55:09.316Z,55.80
2023-01-23T19:57:35.793Z,55.80
2023-01-23T20:00:02.238Z,55.80
2023-01-23T20:02:28.761Z,55.80
2023-01-23T20:04:55.268Z,55.80
2023-01-23T20:07:21.774Z,55.90
2023-01-23T20:09:48.253Z,55.70
2023-01-23T20:12:14.739Z,55.80
2023-01-23T20:14:41.214Z,55.80
2023-01-23T20:17:07.684Z,55.70
2023-01-23T20:19:34.168Z,55.70
2023-01-23T20:22:00.653Z,55.80
2023-01-23T20:24:27.156Z,55.80
2023-01-23T20:26:53.641Z,55.90
2023-01-23T20:29:20.133Z,55.80
2023-01-23T20:31:46.676Z,55.80
2023-01-23T20:34:13.192Z,55.90
2023-01-23T20:36:39.678Z,55.70
2023-01-23T20:39:06.164Z,56.40
2023-01-23T20:41:32.637Z,55.70
2023-01-23T20:43:59.110Z,55.80
2023-01-23T20:46:25.617Z,55.70
2023-01-23T20:48:52.148Z,55.70
2023-01-23T20:51:18.618Z,55.70
2023-01-23T20:53:45.120Z,55.80
2023-01-23T20:56:11.601Z,55.70
2023-01-23T20:58:38.085Z,55.70
2023-01-23T21:01:04.598Z,55.70
2023-01-23T21:03:31.109Z,55.80
2023-01-23T21:05:57.561Z,55.80
2023-01-23T21:08:24.012Z,55.90
2023-01-23T21:10:50.480Z,55.90
2023-01-23T21:13:16.970Z,55.90
2023-01-23T21:15:43.483Z,55.80
2023-01-23T21:18:09.975Z,55.90
2023-01-23T21:20:38.091Z,55.80
2023-01-23T21:23:05.732Z,55.90
2023-01-23T21:25:32.219Z,55.80
2023-01-23T21:27:58.684Z,55.90
2023-01-23T21:30:25.154Z,56.00
2023-01-23T21:32:51.644Z,55.90
2023-01-23T21:35:18.127Z,55.90
2023-01-23T21:37:44.625Z,55.80
2023-01-23T21:40:11.116Z,55.90
2023-01-23T21:42:37.578Z,55.90
2023-01-23T21:45:04.057Z,55.90
2023-01-23T21:47:30.513Z,55.90
2023-01-23T21:49:56.994Z,55.90
2023-01-23T21:52:23.472Z,55.90
2023-01-23T21:54:49.954Z,56.00
2023-01-23T21:57:16.419Z,55.90
2023-01-23T21:59:42.920Z,55.90
2023-01-23T22:02:09.401Z,56.00
2023-01-23T22:04:35.951Z,55.80
2023-01-23T22:07:02.444Z,55.80
2023-01-23T22:09:28.932Z,55.90
2023-01-23T22:11:55.394Z,55.90
2023-01-23T22:14:21.871Z,56.00
2023-01-23T22:16:50.102Z,56.00
2023-01-23T22:19:17.111Z,56.00
2023-01-23T22:21:43.577Z,55.90
2023-01-23T22:24:10.139Z,56.00
2023-01-23T22:26:37.129Z,55.80
2023-01-23T22:29:03.600Z,55.80
2023-01-23T22:31:30.468Z,56.00
2023-01-23T22:33:57.028Z,56.00
2023-01-23T22:36:23.528Z,55.90
2023-01-23T22:38:49.991Z,55.90
2023-01-23T22:41:16.481Z,55.90
2023-01-23T22:43:42.947Z,55.90
2023-01-23T22:46:09.431Z,55.90
2023-01-23T22:48:35.901Z,55.80
2023-01-23T22:51:02.395Z,55.90
2023-01-23T22:53:28.887Z,56.00
2023-01-23T22:55:55.359Z,56.10
2023-01-23T22:58:21.829Z,56.00
2023-01-23T23:00:48.348Z,56.60
2023-01-23T23:03:14.842Z,56.00
2023-01-23T23:05:41.314Z,55.90
2023-01-23T23:08:07.788Z,56.00
2023-01-23T23:10:34.285Z,56.00
2023-01-23T23:13:00.760Z,55.90
2023-01-23T23:15:27.229Z,55.90
2023-01-23T23:17:53.731Z,55.90
2023-01-23T23:20:20.236Z,56.10
2023-01-23T23:22:46.716Z,55.90
2023-01-23T23:25:13.205Z,55.90
2023-01-23T23:27:39.686Z,55.90
2023-01-23T23:30:06.170Z,55.90
2023-01-23T23:32:32.650Z,55.90
2023-01-23T23:34:59.120Z,55.80
2023-01-23T23:37:25.582Z,55.90
2023-01-23T23:39:52.067Z,55.90
2023-01-23T23:42:18.535Z,55.90
2023-01-23T23:44:44.996Z,55.80
2023-01-23T23:47:11.494Z,55.90
2023-01-23T23:49:37.968Z,56.00
2023-01-23T23:52:04.469Z,55.90
2023-01-23T23:54:30.946Z,56.00
2023-01-23T23:56:57.461Z,56.00
2023-01-23T23:59:23.932Z,55.90
